Terminal Aerodrome Forecast
Issued by NWS

Home | Current Version | Previous Version | Graphics & Text | Print | Product List | Glossary On
Versions: 1 2 3 4 5 6 7 8 9 10 11 12 13 14 15 16 17 18 19 20
000
FTUS41 KCLE 232300
TAFFDY
TAF
KFDY 232324Z 2400/2424 06012KT P6SM -SN OVC035
      TEMPO 2400/2402 4SM -SN BKN012
     FM240200 05007KT P6SM SCT015 OVC025
      TEMPO 2402/2404 6SM -SN BR OVC015
     FM240900 05007KT P6SM BKN035 OVC080
     FM241400 08008KT P6SM SCT080 BKN250
     FM241800 08008KT P6SM SKC=

USA.gov is the U.S. government's official web portal to all federal, state and local government web resources and services.